sensor_id;sensor_type;location;lat;lon;timestamp;pressure;altitude;pressure_sealevel;temperature;humidity
69848;BME280;57143;55.940;37.496;2023-11-22T00:01:30;99538.25;;;-8.31;100.00
69848;BME280;57143;55.940;37.496;2023-11-22T00:03:57;99522.78;;;-8.48;100.00
69848;BME280;57143;55.940;37.496;2023-11-22T00:06:26;99519.00;;;-8.44;100.00
69848;BME280;57143;55.940;37.496;2023-11-22T00:08:53;99543.28;;;-8.28;100.00
69848;BME280;57143;55.940;37.496;2023-11-22T00:11:21;99544.03;;;-8.26;100.00
69848;BME280;57143;55.940;37.496;2023-11-22T00:13:49;99536.56;;;-8.32;100.00
69848;BME280;57143;55.940;37.496;2023-11-22T00:16:21;99542.13;;;-8.49;100.00
69848;BME280;57143;55.940;37.496;2023-11-22T00:18:49;99518.34;;;-8.60;100.00
69848;BME280;57143;55.940;37.496;2023-11-22T00:21:16;99520.91;;;-8.46;100.00
69848;BME280;57143;55.940;37.496;2023-11-22T00:23:43;99514.88;;;-8.61;100.00
69848;BME280;57143;55.940;37.496;2023-11-22T00:26:10;99530.53;;;-8.47;100.00
69848;BME280;57143;55.940;37.496;2023-11-22T00:28:39;99532.66;;;-8.39;100.00
69848;BME280;57143;55.940;37.496;2023-11-22T00:31:06;99471.16;;;-8.74;100.00
69848;BME280;57143;55.940;37.496;2023-11-22T00:33:33;99525.81;;;-8.42;100.00
69848;BME280;57143;55.940;37.496;2023-11-22T00:36:00;99532.78;;;-8.28;100.00
69848;BME280;57143;55.940;37.496;2023-11-22T00:38:30;99538.25;;;-8.31;100.00
69848;BME280;57143;55.940;37.496;2023-11-22T00:40:57;99531.94;;;-8.28;100.00
69848;BME280;57143;55.940;37.496;2023-11-22T00:43:27;99526.88;;;-8.44;100.00
69848;BME280;57143;55.940;37.496;2023-11-22T00:45:56;99531.31;;;-8.32;100.00
69848;BME280;57143;55.940;37.496;2023-11-22T00:48:24;99528.16;;;-8.37;100.00
69848;BME280;57143;55.940;37.496;2023-11-22T00:50:51;99542.13;;;-8.24;100.00
69848;BME280;57143;55.940;37.496;2023-11-22T00:53:18;99535.41;;;-8.41;100.00
69848;BME280;57143;55.940;37.496;2023-11-22T00:55:45;99528.66;;;-8.45;100.00
69848;BME280;57143;55.940;37.496;2023-11-22T00:58:12;99528.16;;;-8.37;100.00
69848;BME280;57143;55.940;37.496;2023-11-22T01:00:39;99528.34;;;-8.40;100.00
69848;BME280;57143;55.940;37.496;2023-11-22T01:03:08;99517.63;;;-8.50;100.00
69848;BME280;57143;55.940;37.496;2023-11-22T01:05:37;99534.13;;;-8.35;100.00
69848;BME280;57143;55.940;37.496;2023-11-22T01:08:05;99517.84;;;-8.40;100.00
69848;BME280;57143;55.940;37.496;2023-11-22T01:10:32;99518.56;;;-8.38;100.00
69848;BME280;57143;55.940;37.496;2023-11-22T01:12:59;99531.59;;;-8.37;100.00
69848;BME280;57143;55.940;37.496;2023-11-22T01:15:26;99498.38;;;-8.63;100.00
69848;BME280;57143;55.940;37.496;2023-11-22T01:17:53;99512.59;;;-8.53;100.00
69848;BME280;57143;55.940;37.496;2023-11-22T01:20:22;99530.97;;;-8.40;100.00
69848;BME280;57143;55.940;37.496;2023-11-22T01:22:49;99514.56;;;-8.44;100.00
69848;BME280;57143;55.940;37.496;2023-11-22T01:25:16;99534.66;;;-8.43;100.00
69848;BME280;57143;55.940;37.496;2023-11-22T01:27:45;99525.44;;;-8.36;100.00
69848;BME280;57143;55.940;37.496;2023-11-22T01:30:12;99520.28;;;-8.37;100.00
69848;BME280;57143;55.940;37.496;2023-11-22T01:32:40;99528.44;;;-8.42;100.00
69848;BME280;57143;55.940;37.496;2023-11-22T01:35:08;99536.34;;;-8.29;100.00
69848;BME280;57143;55.940;37.496;2023-11-22T01:37:36;99514.47;;;-8.29;100.00
69848;BME280;57143;55.940;37.496;2023-11-22T01:40:04;99511.88;;;-8.42;100.00
69848;BME280;57143;55.940;37.496;2023-11-22T01:42:34;99523.22;;;-8.29;100.00
69848;BME280;57143;55.940;37.496;2023-11-22T01:45:02;99530.69;;;-8.36;100.00
69848;BME280;57143;55.940;37.496;2023-11-22T01:47:30;99522.97;;;-8.39;100.00
69848;BME280;57143;55.940;37.496;2023-11-22T01:49:58;99494.19;;;-8.53;100.00
69848;BME280;57143;55.940;37.496;2023-11-22T01:52:25;99487.84;;;-8.63;100.00
69848;BME280;57143;55.940;37.496;2023-11-22T01:54:54;99511.84;;;-8.55;100.00
69848;BME280;57143;55.940;37.496;2023-11-22T01:57:21;99526.88;;;-8.44;100.00
69848;BME280;57143;55.940;37.496;2023-11-22T01:59:49;99533.31;;;-8.36;100.00
69848;BME280;57143;55.940;37.496;2023-11-22T02:02:16;99539.38;;;-8.35;100.00
69848;BME280;57143;55.940;37.496;2023-11-22T02:04:43;99517.53;;;-8.36;100.00
69848;BME280;57143;55.940;37.496;2023-11-22T02:07:10;99539.19;;;-8.32;100.00
69848;BME280;57143;55.940;37.496;2023-11-22T02:09:37;99511.63;;;-8.52;100.00
69848;BME280;57143;55.940;37.496;2023-11-22T02:12:07;99530.16;;;-8.41;100.00
69848;BME280;57143;55.940;37.496;2023-11-22T02:14:36;99540.78;;;-8.42;100.00
69848;BME280;57143;55.940;37.496;2023-11-22T02:17:03;99539.69;;;-8.40;100.00
69848;BME280;57143;55.940;37.496;2023-11-22T02:19:31;99537.28;;;-8.43;100.00
69848;BME280;57143;55.940;37.496;2023-11-22T02:21:58;99443.28;;;-9.02;100.00
69848;BME280;57143;55.940;37.496;2023-11-22T02:24:27;99530.16;;;-8.41;100.00
69848;BME280;57143;55.940;37.496;2023-11-22T02:26:54;99521.09;;;-8.37;100.00
69848;BME280;57143;55.940;37.496;2023-11-22T02:29:21;99475.19;;;-8.56;100.00
69848;BME280;57143;55.940;37.496;2023-11-22T02:31:49;99520.56;;;-8.16;100.00
69848;BME280;57143;55.940;37.496;2023-11-22T02:34:16;99541.47;;;-8.15;100.00
69848;BME280;57143;55.940;37.496;2023-11-22T02:36:43;99545.38;;;-8.20;100.00
69848;BME280;57143;55.940;37.496;2023-11-22T02:39:10;99546.31;;;-8.21;100.00
69848;BME280;57143;55.940;37.496;2023-11-22T02:41:40;99529.63;;;-8.33;100.00
69848;BME280;57143;55.940;37.496;2023-11-22T02:44:08;99520.91;;;-8.46;100.00
69848;BME280;57143;55.940;37.496;2023-11-22T02:46:35;99538.78;;;-8.26;100.00
69848;BME280;57143;55.940;37.496;2023-11-22T02:49:02;99547.59;;;-8.27;100.00
69848;BME280;57143;55.940;37.496;2023-11-22T02:51:30;99542.13;;;-8.37;100.00
69848;BME280;57143;55.940;37.496;2023-11-22T02:53:57;99525.81;;;-8.42;100.00
69848;BME280;57143;55.940;37.496;2023-11-22T02:56:24;99544.75;;;-8.37;100.00
69848;BME280;57143;55.940;37.496;2023-11-22T02:58:53;99555.38;;;-8.25;100.00
69848;BME280;57143;55.940;37.496;2023-11-22T03:01:20;99525.69;;;-8.65;100.00
69848;BME280;57143;55.940;37.496;2023-11-22T03:03:47;99486.28;;;-8.78;100.00
69848;BME280;57143;55.940;37.496;2023-11-22T03:06:14;99551.47;;;-8.45;100.00
69848;BME280;57143;55.940;37.496;2023-11-22T03:08:41;99542.84;;;-8.47;100.00
69848;BME280;57143;55.940;37.496;2023-11-22T03:11:10;99553.06;;;-8.43;100.00
69848;BME280;57143;55.940;37.496;2023-11-22T03:13:37;99534.94;;;-8.60;100.00
69848;BME280;57143;55.940;37.496;2023-11-22T03:16:06;99536.72;;;-8.60;100.00
69848;BME280;57143;55.940;37.496;2023-11-22T03:18:34;99536.53;;;-8.57;100.00
69848;BME280;57143;55.940;37.496;2023-11-22T03:21:01;99561.34;;;-8.49;100.00
69848;BME280;57143;55.940;37.496;2023-11-22T03:23:31;99562.50;;;-8.40;100.00
69848;BME280;57143;55.940;37.496;2023-11-22T03:25:58;99566.31;;;-8.44;100.00
69848;BME280;57143;55.940;37.496;2023-11-22T03:28:25;99549.56;;;-8.43;100.00
69848;BME280;57143;55.940;37.496;2023-11-22T03:30:56;99535.66;;;-8.70;100.00
69848;BME280;57143;55.940;37.496;2023-11-22T03:33:26;99560.91;;;-8.55;100.00
69848;BME280;57143;55.940;37.496;2023-11-22T03:35:53;99558.16;;;-8.66;100.00
69848;BME280;57143;55.940;37.496;2023-11-22T03:38:20;99541.66;;;-8.68;100.00
69848;BME280;57143;55.940;37.496;2023-11-22T03:40:49;99541.78;;;-8.70;100.00
69848;BME280;57143;55.940;37.496;2023-11-22T03:43:16;99554.25;;;-8.61;100.00
69848;BME280;57143;55.940;37.496;2023-11-22T03:45:44;99553.34;;;-8.47;100.00
69848;BME280;57143;55.940;37.496;2023-11-22T03:48:11;99560.09;;;-8.43;100.00
69848;BME280;57143;55.940;37.496;2023-11-22T03:50:39;99555.38;;;-8.38;100.00
69848;BME280;57143;55.940;37.496;2023-11-22T03:53:07;99556.72;;;-8.45;100.00
69848;BME280;57143;55.940;37.496;2023-11-22T03:55:34;99564.69;;;-8.47;100.00
69848;BME280;57143;55.940;37.496;2023-11-22T03:58:01;99538.63;;;-8.62;100.00
69848;BME280;57143;55.940;37.496;2023-11-22T04:00:28;99568.19;;;-8.46;100.00
69848;BME280;57143;55.940;37.496;2023-11-22T04:02:55;99550.00;;;-8.49;100.00
69848;BME280;57143;55.940;37.496;2023-11-22T04:05:25;99554.31;;;-8.48;100.00
69848;BME280;57143;55.940;37.496;2023-11-22T04:07:53;99492.06;;;-8.85;100.00
69848;BME280;57143;55.940;37.496;2023-11-22T04:10:22;99564.50;;;-8.44;100.00
69848;BME280;57143;55.940;37.496;2023-11-22T04:12:49;99566.94;;;-8.41;100.00
69848;BME280;57143;55.940;37.496;2023-11-22T04:15:16;99570.28;;;-8.51;100.00
69848;BME280;57143;55.940;37.496;2023-11-22T04:17:44;99566.06;;;-8.54;100.00
69848;BME280;57143;55.940;37.496;2023-11-22T04:20:11;99545.47;;;-8.60;100.00
69848;BME280;57143;55.940;37.496;2023-11-22T04:22:41;99563.31;;;-8.52;100.00
69848;BME280;57143;55.940;37.496;2023-11-22T04:25:10;99569.09;;;-8.60;100.00
69848;BME280;57143;55.940;37.496;2023-11-22T04:27:39;99563.31;;;-8.65;100.00
69848;BME280;57143;55.940;37.496;2023-11-22T04:30:07;99546.50;;;-8.62;100.00
69848;BME280;57143;55.940;37.496;2023-11-22T04:32:39;99572.38;;;-8.44;100.00
69848;BME280;57143;55.940;37.496;2023-11-22T04:35:07;99585.44;;;-8.42;100.00
69848;BME280;57143;55.940;37.496;2023-11-22T04:37:35;99570.66;;;-8.57;100.00
69848;BME280;57143;55.940;37.496;2023-11-22T04:40:03;99592.31;;;-8.54;100.00
69848;BME280;57143;55.940;37.496;2023-11-22T04:42:34;99593.22;;;-8.67;100.00
69848;BME280;57143;55.940;37.496;2023-11-22T04:45:03;99598.09;;;-8.61;100.00
69848;BME280;57143;55.940;37.496;2023-11-22T04:47:31;99588.56;;;-8.76;100.00
69848;BME280;57143;55.940;37.496;2023-11-22T04:49:59;99578.28;;;-8.79;100.00
69848;BME280;57143;55.940;37.496;2023-11-22T04:52:26;99597.09;;;-8.73;100.00
69848;BME280;57143;55.940;37.496;2023-11-22T04:54:53;99611.13;;;-8.60;100.00
69848;BME280;57143;55.940;37.496;2023-11-22T04:57:20;99604.44;;;-8.78;100.00
69848;BME280;57143;55.940;37.496;2023-11-22T04:59:49;99584.13;;;-8.88;100.00
69848;BME280;57143;55.940;37.496;2023-11-22T05:02:16;99598.69;;;-8.70;100.00
69848;BME280;57143;55.940;37.496;2023-11-22T05:04:43;99601.59;;;-8.75;100.00
69848;BME280;57143;55.940;37.496;2023-11-22T05:07:14;99604.44;;;-8.78;100.00
69848;BME280;57143;55.940;37.496;2023-11-22T05:09:41;99610.09;;;-8.84;100.00
69848;BME280;57143;55.940;37.496;2023-11-22T05:12:09;99596.88;;;-8.82;100.00
69848;BME280;57143;55.940;37.496;2023-11-22T05:14:37;99608.81;;;-8.78;100.00
69848;BME280;57143;55.940;37.496;2023-11-22T05:17:05;99594.28;;;-8.96;100.00
69848;BME280;57143;55.940;37.496;2023-11-22T05:19:33;99619.00;;;-8.86;100.00
69848;BME280;57143;55.940;37.496;2023-11-22T05:22:00;99606.50;;;-8.83;100.00
69848;BME280;57143;55.940;37.496;2023-11-22T05:24:28;99632.28;;;-8.75;100.00
69848;BME280;57143;55.940;37.496;2023-11-22T05:26:55;99619.75;;;-8.84;100.00
69848;BME280;57143;55.940;37.496;2023-11-22T05:29:22;99642.78;;;-8.75;100.00
69848;BME280;57143;55.940;37.496;2023-11-22T05:31:49;99638.94;;;-8.70;100.00
69848;BME280;57143;55.940;37.496;2023-11-22T05:34:19;99615.13;;;-8.81;100.00
69848;BME280;57143;55.940;37.496;2023-11-22T05:36:47;99637.72;;;-8.78;100.00
69848;BME280;57143;55.940;37.496;2023-11-22T05:39:14;99623.41;;;-8.87;100.00
69848;BME280;57143;55.940;37.496;2023-11-22T05:41:43;99637.03;;;-8.94;100.00
69848;BME280;57143;55.940;37.496;2023-11-22T05:44:10;99627.28;;;-8.92;100.00
69848;BME280;57143;55.940;37.496;2023-11-22T05:46:37;99592.13;;;-9.04;100.00
69848;BME280;57143;55.940;37.496;2023-11-22T05:49:05;99622.09;;;-9.20;100.00
69848;BME280;57143;55.940;37.496;2023-11-22T05:51:38;99638.56;;;-9.04;100.00
69848;BME280;57143;55.940;37.496;2023-11-22T05:54:07;99636.94;;;-8.93;100.00
69848;BME280;57143;55.940;37.496;2023-11-22T05:56:34;99635.81;;;-8.89;100.00
69848;BME280;57143;55.940;37.496;2023-11-22T05:59:03;99618.94;;;-8.99;100.00
69848;BME280;57143;55.940;37.496;2023-11-22T06:01:30;99643.75;;;-8.90;100.00
69848;BME280;57143;55.940;37.496;2023-11-22T06:03:58;99646.31;;;-8.89;100.00
69848;BME280;57143;55.940;37.496;2023-11-22T06:06:25;99653.69;;;-8.81;100.00
69848;BME280;57143;55.940;37.496;2023-11-22T06:08:54;99633.81;;;-8.85;100.00
69848;BME280;57143;55.940;37.496;2023-11-22T06:11:21;99645.66;;;-8.92;100.00
69848;BME280;57143;55.940;37.496;2023-11-22T06:13:48;99630.38;;;-9.00;100.00
69848;BME280;57143;55.940;37.496;2023-11-22T06:16:15;99637.41;;;-9.00;100.00
69848;BME280;57143;55.940;37.496;2023-11-22T06:18:43;99635.53;;;-8.98;100.00
69848;BME280;57143;55.940;37.496;2023-11-22T06:21:10;99652.22;;;-8.99;100.00
69848;BME280;57143;55.940;37.496;2023-11-22T06:23:37;99647.53;;;-8.94;100.00
69848;BME280;57143;55.940;37.496;2023-11-22T06:26:06;99639.16;;;-8.87;100.00
69848;BME280;57143;55.940;37.496;2023-11-22T06:28:33;99651.69;;;-8.78;100.00
69848;BME280;57143;55.940;37.496;2023-11-22T06:31:01;99651.66;;;-8.64;100.00
69848;BME280;57143;55.940;37.496;2023-11-22T06:33:28;99638.03;;;-8.56;100.00
69848;BME280;57143;55.940;37.496;2023-11-22T06:35:56;99633.81;;;-8.59;100.00
69848;BME280;57143;55.940;37.496;2023-11-22T06:38:23;99648.84;;;-8.21;100.00
69848;BME280;57143;55.940;37.496;2023-11-22T06:40:50;99638.97;;;-8.18;100.00
69848;BME280;57143;55.940;37.496;2023-11-22T06:43:18;99642.22;;;-8.14;100.00
69848;BME280;57143;55.940;37.496;2023-11-22T06:45:46;99636.66;;;-8.10;100.00
69848;BME280;57143;55.940;37.496;2023-11-22T06:48:13;99653.63;;;-7.89;100.00
69848;BME280;57143;55.940;37.496;2023-11-22T06:50:40;99632.31;;;-8.11;100.00
69848;BME280;57143;55.940;37.496;2023-11-22T06:53:07;99649.19;;;-7.76;100.00
69848;BME280;57143;55.940;37.496;2023-11-22T06:55:35;99657.63;;;-7.71;100.00
69848;BME280;57143;55.940;37.496;2023-11-22T06:58:02;99618.56;;;-8.02;100.00
69848;BME280;57143;55.940;37.496;2023-11-22T07:00:31;99666.47;;;-7.47;100.00
69848;BME280;57143;55.940;37.496;2023-11-22T07:02:58;99657.25;;;-7.16;100.00
69848;BME280;57143;55.940;37.496;2023-11-22T07:05:25;99659.81;;;-6.78;100.00
69848;BME280;57143;55.940;37.496;2023-11-22T07:07:52;99663.03;;;-6.62;100.00
69848;BME280;57143;55.940;37.496;2023-11-22T07:10:21;99660.63;;;-6.65;100.00
69848;BME280;57143;55.940;37.496;2023-11-22T07:12:49;99662.88;;;-6.84;100.00
69848;BME280;57143;55.940;37.496;2023-11-22T07:15:16;99701.16;;;-6.55;100.00
69848;BME280;57143;55.940;37.496;2023-11-22T07:17:45;99695.56;;;-6.51;100.00
69848;BME280;57143;55.940;37.496;2023-11-22T07:20:13;99718.78;;;-6.56;100.00
69848;BME280;57143;55.940;37.496;2023-11-22T07:22:43;99721.63;;;-6.59;100.00
69848;BME280;57143;55.940;37.496;2023-11-22T07:25:10;99740.28;;;-6.62;100.00
69848;BME280;57143;55.940;37.496;2023-11-22T07:27:45;99726.25;;;-6.50;100.00
69848;BME280;57143;55.940;37.496;2023-11-22T07:30:13;99721.09;;;-6.64;100.00
69848;BME280;57143;55.940;37.496;2023-11-22T07:32:41;99762.84;;;-6.58;100.00
69848;BME280;57143;55.940;37.496;2023-11-22T07:35:11;99759.19;;;-6.68;100.00
69848;BME280;57143;55.940;37.496;2023-11-22T07:37:38;99774.78;;;-6.77;100.00
69848;BME280;57143;55.940;37.496;2023-11-22T07:40:09;99774.16;;;-6.81;100.00
69848;BME280;57143;55.940;37.496;2023-11-22T07:42:39;99779.09;;;-6.76;100.00
69848;BME280;57143;55.940;37.496;2023-11-22T07:45:07;99763.44;;;-7.41;100.00
69848;BME280;57143;55.940;37.496;2023-11-22T07:47:37;99767.34;;;-7.34;100.00
69848;BME280;57143;55.940;37.496;2023-11-22T07:50:08;99779.09;;;-6.76;100.00
69848;BME280;57143;55.940;37.496;2023-11-22T07:52:41;99696.41;;;-6.86;100.00
69848;BME280;57143;55.940;37.496;2023-11-22T07:55:08;99776.94;;;-6.46;100.00
69848;BME280;57143;55.940;37.496;2023-11-22T07:57:37;99774.41;;;-6.48;100.00
69848;BME280;57143;55.940;37.496;2023-11-22T08:00:05;99785.13;;;-6.26;100.00
69848;BME280;57143;55.940;37.496;2023-11-22T08:02:33;99803.81;;;-6.29;100.00
69848;BME280;57143;55.940;37.496;2023-11-22T08:05:01;99781.84;;;-5.82;100.00
69848;BME280;57143;55.940;37.496;2023-11-22T08:07:30;99722.34;;;-6.21;100.00
69848;BME280;57143;55.940;37.496;2023-11-22T08:10:00;99787.63;;;-6.24;100.00
69848;BME280;57143;55.940;37.496;2023-11-22T08:12:35;99837.94;;;-6.15;100.00
69848;BME280;57143;55.940;37.496;2023-11-22T08:15:04;99826.66;;;-6.17;100.00
69848;BME280;57143;55.940;37.496;2023-11-22T08:17:32;99803.97;;;-6.19;100.00
69848;BME280;57143;55.940;37.496;2023-11-22T08:19:59;99809.31;;;-6.08;100.00
69848;BME280;57143;55.940;37.496;2023-11-22T08:22:31;99751.38;;;-6.33;100.00
69848;BME280;57143;55.940;37.496;2023-11-22T08:25:03;99827.25;;;-6.49;100.00
69848;BME280;57143;55.940;37.496;2023-11-22T08:27:30;99831.16;;;-6.55;100.00
69848;BME280;57143;55.940;37.496;2023-11-22T08:29:58;99822.00;;;-6.74;100.00
69848;BME280;57143;55.940;37.496;2023-11-22T08:32:27;99804.41;;;-6.74;100.00
69848;BME280;57143;55.940;37.496;2023-11-22T08:34:56;99791.84;;;-6.83;100.00
69848;BME280;57143;55.940;37.496;2023-11-22T08:37:24;99783.25;;;-6.97;100.00
69848;BME280;57143;55.940;37.496;2023-11-22T08:39:51;99806.19;;;-6.62;100.00
69848;BME280;57143;55.940;37.496;2023-11-22T08:42:21;99811.84;;;-6.55;100.00
69848;BME280;57143;55.940;37.496;2023-11-22T08:44:49;99793.50;;;-6.57;100.00
69848;BME280;57143;55.940;37.496;2023-11-22T08:47:16;99804.22;;;-6.83;100.00
69848;BME280;57143;55.940;37.496;2023-11-22T08:49:44;99801.25;;;-6.91;100.00
69848;BME280;57143;55.940;37.496;2023-11-22T08:52:13;99803.47;;;-6.85;100.00
69848;BME280;57143;55.940;37.496;2023-11-22T08:54:41;99795.97;;;-6.91;100.00
69848;BME280;57143;55.940;37.496;2023-11-22T08:57:08;99771.22;;;-7.01;100.00
69848;BME280;57143;55.940;37.496;2023-11-22T08:59:38;99769.19;;;-6.73;100.00
69848;BME280;57143;55.940;37.496;2023-11-22T09:02:04;99756.69;;;-7.07;100.00
69848;BME280;57143;55.940;37.496;2023-11-22T09:04:33;99761.44;;;-6.87;100.00
69848;BME280;57143;55.940;37.496;2023-11-22T09:07:01;99767.53;;;-6.86;100.00
69848;BME280;57143;55.940;37.496;2023-11-22T09:09:28;99749.44;;;-6.55;100.00
69848;BME280;57143;55.940;37.496;2023-11-22T09:11:57;99753.88;;;-6.55;100.00
69848;BME280;57143;55.940;37.496;2023-11-22T09:14:25;99697.66;;;-6.79;100.00
69848;BME280;57143;55.940;37.496;2023-11-22T09:16:53;99754.38;;;-6.50;100.00
69848;BME280;57143;55.940;37.496;2023-11-22T09:19:21;99759.06;;;-6.66;100.00
69848;BME280;57143;55.940;37.496;2023-11-22T09:21:49;99753.91;;;-6.68;100.00
69848;BME280;57143;55.940;37.496;2023-11-22T09:24:16;99742.53;;;-6.81;100.00
69848;BME280;57143;55.940;37.496;2023-11-22T09:26:43;99767.63;;;-6.75;100.00
69848;BME280;57143;55.940;37.496;2023-11-22T09:29:10;99762.44;;;-6.64;100.00
69848;BME280;57143;55.940;37.496;2023-11-22T09:31:39;99756.75;;;-6.71;100.00
69848;BME280;57143;55.940;37.496;2023-11-22T09:34:09;99756.81;;;-6.47;100.00
69848;BME280;57143;55.940;37.496;2023-11-22T09:36:36;99752.72;;;-6.51;100.00
69848;BME280;57143;55.940;37.496;2023-11-22T09:39:04;99770.66;;;-6.56;100.00
69848;BME280;57143;55.940;37.496;2023-11-22T09:41:34;99767.72;;;-6.77;100.00
69848;BME280;57143;55.940;37.496;2023-11-22T09:44:02;99760.97;;;-6.81;100.00
69848;BME280;57143;55.940;37.496;2023-11-22T09:46:30;99767.09;;;-7.05;100.00
69848;BME280;57143;55.940;37.496;2023-11-22T09:49:00;99762.06;;;-7.08;100.00
69848;BME280;57143;55.940;37.496;2023-11-22T09:51:33;99757.84;;;-6.98;100.00
69848;BME280;57143;55.940;37.496;2023-11-22T09:54:04;99744.16;;;-6.91;100.00
69848;BME280;57143;55.940;37.496;2023-11-22T09:56:33;99753.59;;;-6.88;100.00
69848;BME280;57143;55.940;37.496;2023-11-22T09:59:03;99744.84;;;-6.76;100.00
69848;BME280;57143;55.940;37.496;2023-11-22T10:01:31;99754.44;;;-6.63;100.00
69848;BME280;57143;55.940;37.496;2023-11-22T10:04:02;99748.19;;;-6.49;100.00
69848;BME280;57143;55.940;37.496;2023-11-22T10:06:33;99748.44;;;-6.65;100.00
69848;BME280;57143;55.940;37.496;2023-11-22T10:09:02;99747.16;;;-6.72;100.00
69848;BME280;57143;55.940;37.496;2023-11-22T10:11:33;99752.94;;;-6.54;100.00
69848;BME280;57143;55.940;37.496;2023-11-22T10:14:01;99752.50;;;-6.61;100.00
69848;BME280;57143;55.940;37.496;2023-11-22T10:16:29;99757.44;;;-6.44;100.00
69848;BME280;57143;55.940;37.496;2023-11-22T10:18:57;99721.44;;;-6.56;100.00
69848;BME280;57143;55.940;37.496;2023-11-22T10:21:25;99743.41;;;-6.44;100.00
69848;BME280;57143;55.940;37.496;2023-11-22T10:23:56;99742.78;;;-6.48;100.00
69848;BME280;57143;55.940;37.496;2023-11-22T10:26:23;99739.56;;;-6.76;100.00
69848;BME280;57143;55.940;37.496;2023-11-22T10:28:53;99752.91;;;-6.90;100.00
69848;BME280;57143;55.940;37.496;2023-11-22T10:31:20;99756.25;;;-6.88;100.00
69848;BME280;57143;55.940;37.496;2023-11-22T10:33:48;99755.13;;;-7.09;100.00
69848;BME280;57143;55.940;37.496;2023-11-22T10:36:16;99760.34;;;-6.97;100.00
69848;BME280;57143;55.940;37.496;2023-11-22T10:38:46;99764.19;;;-7.01;100.00
69848;BME280;57143;55.940;37.496;2023-11-22T10:41:15;99754.47;;;-6.88;100.00
69848;BME280;57143;55.940;37.496;2023-11-22T10:43:44;99751.81;;;-6.88;100.00
69848;BME280;57143;55.940;37.496;2023-11-22T10:46:12;99763.50;;;-6.79;100.00
69848;BME280;57143;55.940;37.496;2023-11-22T10:48:40;99764.38;;;-6.91;100.00
69848;BME280;57143;55.940;37.496;2023-11-22T10:51:11;99756.47;;;-6.91;100.00
69848;BME280;57143;55.940;37.496;2023-11-22T10:53:45;99744.66;;;-6.73;100.00
69848;BME280;57143;55.940;37.496;2023-11-22T10:56:17;99750.22;;;-6.65;100.00
69848;BME280;57143;55.940;37.496;2023-11-22T10:58:48;99744.41;;;-6.58;100.00
69848;BME280;57143;55.940;37.496;2023-11-22T11:01:15;99737.00;;;-6.53;100.00
69848;BME280;57143;55.940;37.496;2023-11-22T11:03:49;99736.91;;;-6.64;100.00
69848;BME280;57143;55.940;37.496;2023-11-22T11:06:20;99738.56;;;-6.50;100.00
69848;BME280;57143;55.940;37.496;2023-11-22T11:08:55;99736.16;;;-6.53;100.00
69848;BME280;57143;55.940;37.496;2023-11-22T11:11:27;99729.00;;;-6.51;100.00
69848;BME280;57143;55.940;37.496;2023-11-22T11:13:55;99713.22;;;-6.76;100.00
69848;BME280;57143;55.940;37.496;2023-11-22T11:16:23;99732.53;;;-6.76;100.00
69848;BME280;57143;55.940;37.496;2023-11-22T11:18:51;99731.16;;;-6.81;100.00
69848;BME280;57143;55.940;37.496;2023-11-22T11:21:19;99742.66;;;-6.82;100.00
69848;BME280;57143;55.940;37.496;2023-11-22T11:23:46;99734.22;;;-6.75;100.00
69848;BME280;57143;55.940;37.496;2023-11-22T11:26:18;99734.31;;;-6.76;100.00
69848;BME280;57143;55.940;37.496;2023-11-22T11:28:50;99727.25;;;-6.76;100.00
69848;BME280;57143;55.940;37.496;2023-11-22T11:31:21;99737.59;;;-6.85;100.00
69848;BME280;57143;55.940;37.496;2023-11-22T11:33:55;99742.78;;;-7.09;100.00
69848;BME280;57143;55.940;37.496;2023-11-22T11:36:24;99740.88;;;-6.94;100.00
69848;BME280;57143;55.940;37.496;2023-11-22T11:38:52;99741.00;;;-7.08;100.00
69848;BME280;57143;55.940;37.496;2023-11-22T11:41:25;99713.84;;;-7.22;100.00
69848;BME280;57143;55.940;37.496;2023-11-22T11:43:56;99637.75;;;-7.75;100.00
69848;BME280;57143;55.940;37.496;2023-11-22T11:46:24;99738.16;;;-7.18;100.00
69848;BME280;57143;55.940;37.496;2023-11-22T11:48:53;99727.41;;;-7.15;100.00
69848;BME280;57143;55.940;37.496;2023-11-22T11:51:22;99727.63;;;-7.31;100.00
69848;BME280;57143;55.940;37.496;2023-11-22T11:53:50;99732.56;;;-7.26;100.00
69848;BME280;57143;55.940;37.496;2023-11-22T11:56:18;99727.41;;;-7.28;100.00
69848;BME280;57143;55.940;37.496;2023-11-22T11:58:46;99739.09;;;-7.44;100.00
69848;BME280;57143;55.940;37.496;2023-11-22T12:01:17;99705.94;;;-7.47;100.00
69848;BME280;57143;55.940;37.496;2023-11-22T12:03:46;99721.72;;;-7.34;100.00
69848;BME280;57143;55.940;37.496;2023-11-22T12:06:15;99729.50;;;-7.45;100.00
69848;BME280;57143;55.940;37.496;2023-11-22T12:08:42;99694.56;;;-7.60;100.00
69848;BME280;57143;55.940;37.496;2023-11-22T12:11:10;99702.22;;;-7.69;100.00
69848;BME280;57143;55.940;37.496;2023-11-22T12:13:41;99706.88;;;-7.60;100.00
69848;BME280;57143;55.940;37.496;2023-11-22T12:16:13;99729.72;;;-7.48;100.00
69848;BME280;57143;55.940;37.496;2023-11-22T12:18:45;99730.94;;;-7.79;100.00
69848;BME280;57143;55.940;37.496;2023-11-22T12:21:14;99719.81;;;-7.70;100.00
69848;BME280;57143;55.940;37.496;2023-11-22T12:23:43;99746.13;;;-7.57;100.00
69848;BME280;57143;55.940;37.496;2023-11-22T12:26:12;99752.75;;;-7.77;100.00
69848;BME280;57143;55.940;37.496;2023-11-22T12:28:40;99747.66;;;-7.92;100.00
69848;BME280;57143;55.940;37.496;2023-11-22T12:31:08;99746.03;;;-7.95;100.00
69848;BME280;57143;55.940;37.496;2023-11-22T12:33:36;99755.31;;;-7.89;100.00
69848;BME280;57143;55.940;37.496;2023-11-22T12:36:08;99755.97;;;-7.86;100.00
69848;BME280;57143;55.940;37.496;2023-11-22T12:38:36;99752.38;;;-7.85;100.00
69848;BME280;57143;55.940;37.496;2023-11-22T12:41:06;99727.53;;;-8.06;100.00
69848;BME280;57143;55.940;37.496;2023-11-22T12:43:33;99756.41;;;-7.79;100.00
69848;BME280;57143;55.940;37.496;2023-11-22T12:46:02;99713.97;;;-8.00;100.00